createdAt,value
2018-11-11T00:00:01.233Z,14.30
2018-11-11T00:02:29.074Z,14.20
2018-11-11T00:04:56.787Z,14.30
2018-11-11T00:07:24.598Z,14.20
2018-11-11T00:09:52.349Z,14.20
2018-11-11T00:12:20.043Z,14.20
2018-11-11T00:14:47.759Z,14.20
2018-11-11T00:17:15.450Z,14.20
2018-11-11T00:19:43.205Z,14.30
2018-11-11T00:22:10.865Z,14.10
2018-11-11T00:24:39.300Z,14.10
2018-11-11T00:27:07.076Z,14.10
2018-11-11T00:29:34.821Z,14.20
2018-11-11T00:32:02.679Z,14.10
2018-11-11T00:34:30.351Z,14.30
2018-11-11T00:36:57.997Z,14.20
2018-11-11T00:39:25.669Z,14.10
2018-11-11T00:41:53.453Z,14.10
2018-11-11T00:44:21.099Z,14.00
2018-11-11T00:46:48.981Z,14.10
2018-11-11T00:49:16.621Z,14.00
2018-11-11T00:51:44.345Z,14.00
2018-11-11T00:54:12.347Z,14.00
2018-11-11T00:56:40.211Z,14.00
2018-11-11T00:59:07.939Z,14.00
2018-11-11T01:01:36.021Z,13.80
2018-11-11T01:04:04.451Z,13.90
2018-11-11T01:06:33.020Z,14.00
2018-11-11T01:09:01.216Z,14.00
2018-11-11T01:11:29.049Z,14.00
2018-11-11T01:13:56.839Z,14.00
2018-11-11T01:16:24.865Z,14.00
2018-11-11T01:18:52.790Z,14.00
2018-11-11T01:21:20.570Z,14.00
2018-11-11T01:23:48.271Z,13.90
2018-11-11T01:26:16.164Z,13.90
2018-11-11T01:28:43.877Z,13.90
2018-11-11T01:31:11.915Z,13.80
2018-11-11T01:33:39.676Z,13.90
2018-11-11T01:36:07.532Z,14.00
2018-11-11T01:38:35.409Z,14.10
2018-11-11T01:41:04.342Z,14.10
2018-11-11T01:43:32.958Z,14.00
2018-11-11T01:46:00.724Z,14.00
2018-11-11T01:48:28.741Z,14.00
2018-11-11T01:50:56.598Z,13.90
2018-11-11T01:53:24.313Z,13.90
2018-11-11T01:55:52.253Z,13.60
2018-11-11T01:58:19.947Z,13.90
2018-11-11T02:00:47.560Z,13.90
2018-11-11T02:03:15.496Z,13.90
2018-11-11T02:05:43.146Z,13.80
2018-11-11T02:08:10.886Z,13.80
2018-11-11T02:10:38.526Z,13.70
2018-11-11T02:13:06.447Z,13.80
2018-11-11T02:15:34.120Z,13.70
2018-11-11T02:18:01.913Z,13.70
2018-11-11T02:20:29.919Z,13.70
2018-11-11T02:22:57.627Z,13.80
2018-11-11T02:25:25.355Z,13.60
2018-11-11T02:27:53.022Z,13.70
2018-11-11T02:30:21.250Z,13.70
2018-11-11T02:32:49.052Z,13.60
2018-11-11T02:35:16.846Z,13.60
2018-11-11T02:37:44.792Z,13.50
2018-11-11T02:40:13.425Z,13.60
2018-11-11T02:42:41.263Z,13.50
2018-11-11T02:45:10.384Z,13.60
2018-11-11T02:47:38.077Z,13.60
2018-11-11T02:50:07.328Z,13.40
2018-11-11T02:52:35.073Z,13.60
2018-11-11T02:55:02.974Z,13.60
2018-11-11T02:57:30.893Z,13.50
2018-11-11T02:59:59.780Z,13.50
2018-11-11T03:02:27.606Z,13.50
2018-11-11T03:04:55.500Z,13.50
2018-11-11T03:07:23.425Z,13.40
2018-11-11T03:09:51.420Z,13.60
2018-11-11T03:12:19.187Z,13.50
2018-11-11T03:14:46.881Z,13.00
2018-11-11T03:17:14.633Z,13.50
2018-11-11T03:19:42.462Z,13.60
2018-11-11T03:22:10.221Z,13.60
2018-11-11T03:24:37.960Z,13.60
2018-11-11T03:27:05.805Z,13.60
2018-11-11T03:29:33.603Z,13.60
2018-11-11T03:32:01.387Z,13.50
2018-11-11T03:34:29.169Z,13.70
2018-11-11T03:36:57.490Z,13.60
2018-11-11T03:39:25.427Z,13.60
2018-11-11T03:41:54.401Z,13.60
2018-11-11T03:44:23.355Z,13.60
2018-11-11T03:46:51.420Z,13.60
2018-11-11T03:49:19.419Z,13.60
2018-11-11T03:51:47.599Z,13.60
2018-11-11T03:54:15.583Z,13.40
2018-11-11T03:56:43.534Z,13.70
2018-11-11T03:59:11.868Z,13.60
2018-11-11T04:01:40.033Z,13.60
2018-11-11T04:04:08.065Z,13.50
2018-11-11T04:06:36.061Z,13.50
2018-11-11T04:09:09.970Z,13.50
2018-11-11T04:11:38.453Z,13.40
2018-11-11T04:14:06.545Z,13.50
2018-11-11T04:16:34.600Z,13.40
2018-11-11T04:19:02.989Z,13.50
2018-11-11T04:21:30.950Z,13.50
2018-11-11T04:23:58.988Z,13.60
2018-11-11T04:26:27.042Z,13.50
2018-11-11T04:28:55.157Z,13.40
2018-11-11T04:31:23.289Z,13.40
2018-11-11T04:33:51.585Z,13.40
2018-11-11T04:36:19.649Z,13.40
2018-11-11T04:38:47.586Z,13.40
2018-11-11T04:41:15.570Z,13.40
2018-11-11T04:43:43.592Z,13.30
2018-11-11T04:46:11.641Z,13.30
2018-11-11T04:48:39.956Z,13.30
2018-11-11T04:51:07.916Z,13.30
2018-11-11T04:53:35.797Z,13.30
2018-11-11T04:56:04.582Z,13.20
2018-11-11T04:58:32.528Z,13.20
2018-11-11T05:01:00.509Z,13.20
2018-11-11T05:03:28.570Z,13.20
2018-11-11T05:05:56.409Z,13.10
2018-11-11T05:08:24.526Z,13.20
2018-11-11T05:10:52.708Z,13.30
2018-11-11T05:13:20.652Z,13.20
2018-11-11T05:15:48.595Z,13.20
2018-11-11T05:18:16.614Z,13.30
2018-11-11T05:20:44.479Z,13.30
2018-11-11T05:23:12.585Z,13.30
2018-11-11T05:25:41.694Z,13.30
2018-11-11T05:28:09.881Z,13.20
2018-11-11T05:30:38.152Z,13.20
2018-11-11T05:33:06.360Z,13.20
2018-11-11T05:35:34.469Z,13.50
2018-11-11T05:38:03.272Z,13.30
2018-11-11T05:40:32.173Z,13.30
2018-11-11T05:43:00.080Z,13.30
2018-11-11T05:45:27.917Z,13.30
2018-11-11T05:47:56.016Z,13.30
2018-11-11T05:50:24.255Z,13.10
2018-11-11T05:52:52.184Z,13.20
2018-11-11T05:55:20.144Z,13.30
2018-11-11T05:57:48.062Z,13.30
2018-11-11T06:00:17.667Z,13.30
2018-11-11T06:02:45.705Z,13.20
2018-11-11T06:05:14.626Z,13.30
2018-11-11T06:07:42.580Z,13.40
2018-11-11T06:10:12.063Z,13.30
2018-11-11T06:12:39.895Z,13.40
2018-11-11T06:15:09.323Z,13.40
2018-11-11T06:17:37.534Z,13.30
2018-11-11T06:20:10.009Z,13.20
2018-11-11T06:22:39.144Z,13.20
2018-11-11T06:25:07.597Z,13.30
2018-11-11T06:27:35.551Z,13.30
2018-11-11T06:30:04.076Z,13.40
2018-11-11T06:32:31.944Z,13.40
2018-11-11T06:34:59.799Z,13.30
2018-11-11T06:37:27.681Z,13.40
2018-11-11T06:39:55.561Z,13.40
2018-11-11T06:42:23.589Z,13.40
2018-11-11T06:44:51.574Z,13.20
2018-11-11T06:47:19.605Z,13.30
2018-11-11T06:49:47.592Z,12.70
2018-11-11T06:52:15.490Z,13.30
2018-11-11T06:54:43.480Z,13.30
2018-11-11T06:57:11.358Z,13.40
2018-11-11T06:59:39.241Z,13.30
2018-11-11T07:02:07.133Z,13.30
2018-11-11T07:04:34.998Z,13.30
2018-11-11T07:07:02.875Z,13.30
2018-11-11T07:09:30.873Z,13.40
2018-11-11T07:11:58.768Z,13.40
2018-11-11T07:14:26.689Z,13.30
2018-11-11T07:16:54.594Z,12.70
2018-11-11T07:19:22.486Z,13.30
2018-11-11T07:21:50.497Z,13.20
2018-11-11T07:24:18.398Z,13.30
2018-11-11T07:26:46.267Z,13.40
2018-11-11T07:29:14.289Z,13.00
2018-11-11T07:31:42.161Z,13.40
2018-11-11T07:34:10.122Z,13.40
2018-11-11T07:36:37.904Z,13.40
2018-11-11T07:39:10.882Z,13.40
2018-11-11T07:41:38.697Z,13.40
2018-11-11T07:44:06.617Z,13.40
2018-11-11T07:46:34.566Z,13.40
2018-11-11T07:49:02.425Z,13.40
2018-11-11T07:51:30.571Z,13.40
2018-11-11T07:53:58.545Z,13.50
2018-11-11T07:56:26.497Z,13.50
2018-11-11T07:58:54.478Z,13.50
2018-11-11T08:01:22.423Z,13.60
2018-11-11T08:03:50.490Z,13.60
2018-11-11T08:06:18.687Z,13.60
2018-11-11T08:08:46.660Z,13.60
2018-11-11T08:11:25.945Z,13.60
2018-11-11T08:13:53.895Z,14.00
2018-11-11T08:16:21.839Z,13.70
2018-11-11T08:18:49.899Z,13.60
2018-11-11T08:21:17.869Z,13.60
2018-11-11T08:23:45.824Z,13.60
2018-11-11T08:26:14.079Z,13.70
2018-11-11T08:28:42.003Z,13.80
2018-11-11T08:31:09.945Z,13.80
2018-11-11T08:33:37.860Z,13.70
2018-11-11T08:36:05.847Z,13.90
2018-11-11T08:38:33.905Z,14.00
2018-11-11T08:41:02.000Z,14.10
2018-11-11T08:43:30.144Z,14.20
2018-11-11T08:45:58.106Z,14.10
2018-11-11T08:48:26.008Z,14.00
2018-11-11T08:50:53.605Z,13.90
2018-11-11T08:53:21.630Z,13.90
2018-11-11T08:55:49.421Z,13.90
2018-11-11T08:58:17.228Z,14.00
2018-11-11T09:00:45.028Z,14.00
2018-11-11T09:03:12.934Z,14.00
2018-11-11T09:05:40.728Z,14.00
2018-11-11T09:08:08.362Z,14.10
2018-11-11T09:10:36.121Z,14.00
2018-11-11T09:13:04.101Z,14.10
2018-11-11T09:15:31.796Z,14.10
2018-11-11T09:17:59.479Z,14.10
2018-11-11T09:20:27.176Z,14.10
2018-11-11T09:22:54.788Z,14.20
2018-11-11T09:25:22.528Z,14.30
2018-11-11T09:27:50.195Z,14.30
2018-11-11T09:30:18.018Z,14.30
2018-11-11T09:32:45.809Z,14.40
2018-11-11T09:35:13.815Z,14.40
2018-11-11T09:37:41.603Z,14.50
2018-11-11T09:40:10.431Z,14.40
2018-11-11T09:42:38.283Z,14.40
2018-11-11T09:45:08.411Z,14.40
2018-11-11T09:47:36.095Z,14.40
2018-11-11T09:50:05.942Z,14.40
2018-11-11T09:52:33.701Z,14.40
2018-11-11T09:55:01.555Z,14.40
2018-11-11T09:57:30.346Z,14.40
2018-11-11T09:59:58.033Z,14.40
2018-11-11T10:02:25.718Z,14.40
2018-11-11T10:05:01.785Z,14.50
2018-11-11T10:07:39.313Z,14.50
2018-11-11T10:10:14.812Z,14.50
2018-11-11T10:13:46.754Z,14.40
2018-11-11T10:16:24.855Z,14.40
2018-11-11T10:18:58.353Z,14.50
2018-11-11T10:21:34.748Z,14.50
2018-11-11T10:24:08.135Z,14.50
2018-11-11T10:26:41.077Z,14.80
2018-11-11T10:29:18.858Z,14.80
2018-11-11T10:31:57.968Z,14.80
2018-11-11T10:34:34.716Z,14.80
2018-11-11T10:37:16.985Z,15.00
2018-11-11T10:39:50.240Z,14.90
2018-11-11T10:43:26.759Z,14.80
2018-11-11T10:46:58.638Z,15.10
2018-11-11T10:49:30.376Z,15.10
2018-11-11T10:51:58.098Z,15.10
2018-11-11T10:54:26.121Z,15.30
2018-11-11T10:56:57.547Z,15.40
2018-11-11T10:59:25.717Z,15.40
2018-11-11T11:01:59.609Z,15.50
2018-11-11T11:04:27.620Z,15.50
2018-11-11T11:07:00.910Z,15.40
2018-11-11T11:09:28.720Z,15.20
2018-11-11T11:11:57.267Z,15.40
2018-11-11T11:14:25.135Z,15.40
2018-11-11T11:16:53.113Z,15.50
2018-11-11T11:19:20.882Z,15.60
2018-11-11T11:21:50.153Z,15.50
2018-11-11T11:24:17.919Z,15.50
2018-11-11T11:26:45.830Z,15.50
2018-11-11T11:29:13.690Z,15.40
2018-11-11T11:31:41.528Z,15.40
2018-11-11T11:34:09.170Z,15.40
2018-11-11T11:36:36.983Z,15.40
2018-11-11T11:39:07.089Z,15.50
2018-11-11T11:41:34.918Z,15.60
2018-11-11T11:44:02.832Z,15.60
2018-11-11T11:46:30.757Z,15.70
2018-11-11T11:48:58.680Z,15.80
2018-11-11T11:51:26.375Z,15.80
2018-11-11T11:53:54.054Z,15.90
2018-11-11T11:56:21.776Z,15.90
2018-11-11T11:58:49.450Z,16.00
2018-11-11T12:01:17.276Z,15.70
2018-11-11T12:03:44.897Z,16.00
2018-11-11T12:06:12.725Z,16.00
2018-11-11T12:08:40.446Z,16.00
2018-11-11T12:11:08.360Z,16.00
2018-11-11T12:13:36.033Z,15.90
2018-11-11T12:16:03.711Z,16.00
2018-11-11T12:18:31.468Z,16.30
2018-11-11T12:20:59.103Z,16.10
2018-11-11T12:23:27.006Z,16.10
2018-11-11T12:25:54.657Z,16.10
2018-11-11T12:28:22.386Z,16.00
2018-11-11T12:30:50.156Z,15.80
2018-11-11T12:33:17.859Z,15.90
2018-11-11T12:35:45.555Z,15.70
2018-11-11T12:38:13.470Z,16.00
2018-11-11T12:40:41.128Z,15.90
2018-11-11T12:43:08.917Z,15.80
2018-11-11T12:45:36.556Z,15.80
2018-11-11T12:48:05.373Z,15.80
2018-11-11T12:50:33.073Z,15.80
2018-11-11T12:53:00.838Z,15.80
2018-11-11T12:55:28.882Z,15.80
2018-11-11T12:58:04.014Z,15.90
2018-11-11T13:00:31.748Z,15.90
2018-11-11T13:02:59.929Z,15.90
2018-11-11T13:05:28.721Z,15.90
2018-11-11T13:07:56.690Z,15.90
2018-11-11T13:10:24.699Z,15.90
2018-11-11T13:12:52.539Z,15.80
2018-11-11T13:15:21.113Z,15.80
2018-11-11T13:17:48.899Z,15.90
2018-11-11T13:20:17.832Z,15.80
2018-11-11T13:22:45.736Z,15.80
2018-11-11T13:25:13.711Z,15.80
2018-11-11T13:27:41.077Z,16.20
2018-11-11T13:30:12.911Z,16.00
2018-11-11T13:32:40.345Z,15.50
2018-11-11T13:35:10.520Z,15.80
2018-11-11T13:37:37.944Z,15.70
2018-11-11T13:40:12.395Z,15.70
2018-11-11T13:42:39.999Z,16.00
2018-11-11T13:45:09.487Z,15.40
2018-11-11T13:47:36.904Z,15.40
2018-11-11T13:50:06.441Z,15.40
2018-11-11T13:52:33.871Z,15.50
2018-11-11T13:55:01.266Z,15.00
2018-11-11T13:57:28.738Z,15.30
2018-11-11T13:59:56.206Z,15.40
2018-11-11T14:02:23.615Z,15.40
2018-11-11T14:04:51.006Z,15.30
2018-11-11T14:07:18.486Z,15.20
2018-11-11T14:09:45.925Z,15.20
2018-11-11T14:12:13.418Z,15.40
2018-11-11T14:14:40.763Z,15.20
2018-11-11T14:17:08.254Z,15.20
2018-11-11T14:19:35.989Z,15.10
2018-11-11T14:22:06.403Z,15.00
2018-11-11T14:24:33.794Z,15.00
2018-11-11T14:27:01.147Z,15.00
2018-11-11T14:29:28.527Z,14.90
2018-11-11T14:31:56.003Z,15.30
2018-11-11T14:34:23.530Z,14.90
2018-11-11T14:36:50.885Z,15.10
2018-11-11T14:39:18.292Z,15.20
2018-11-11T14:41:45.708Z,14.60
2018-11-11T14:44:13.086Z,14.80
2018-11-11T14:46:40.718Z,14.70
2018-11-11T14:49:08.837Z,14.80
2018-11-11T14:51:36.217Z,14.80
2018-11-11T14:54:03.597Z,14.60
2018-11-11T14:56:31.271Z,14.70
2018-11-11T14:58:58.936Z,14.50
2018-11-11T15:01:26.130Z,14.60
2018-11-11T15:03:53.590Z,14.30
2018-11-11T15:06:20.844Z,14.30
2018-11-11T15:08:48.141Z,14.30
2018-11-11T15:11:15.560Z,14.30
2018-11-11T15:13:42.919Z,14.30
2018-11-11T15:16:10.170Z,14.20
2018-11-11T15:18:37.466Z,14.30
2018-11-11T15:21:04.882Z,14.20
2018-11-11T15:23:32.039Z,14.30
2018-11-11T15:25:59.330Z,14.20
2018-11-11T15:28:26.932Z,14.40
2018-11-11T15:30:54.341Z,14.30
2018-11-11T15:33:21.518Z,14.30
2018-11-11T15:35:48.987Z,14.10
2018-11-11T15:38:16.339Z,14.30
2018-11-11T15:40:43.704Z,14.40
2018-11-11T15:43:11.035Z,14.40
2018-11-11T15:45:38.326Z,14.30
2018-11-11T15:48:05.991Z,14.20
2018-11-11T15:50:34.120Z,14.30
2018-11-11T15:53:02.723Z,14.20
2018-11-11T15:55:31.291Z,14.50
2018-11-11T15:57:58.690Z,14.20
2018-11-11T16:00:28.160Z,14.20
2018-11-11T16:02:55.728Z,14.50
2018-11-11T16:05:23.366Z,14.20
2018-11-11T16:07:53.110Z,14.10
2018-11-11T16:10:22.772Z,14.20
2018-11-11T16:12:50.643Z,14.20
2018-11-11T16:15:20.894Z,14.50
2018-11-11T16:17:51.363Z,14.20
2018-11-11T16:20:23.494Z,14.20
2018-11-11T16:22:52.376Z,14.20
2018-11-11T16:25:20.825Z,14.20
2018-11-11T16:27:48.559Z,14.20
2018-11-11T16:30:23.228Z,14.20
2018-11-11T16:32:51.082Z,14.00
2018-11-11T16:35:19.796Z,14.30
2018-11-11T16:37:47.271Z,14.10
2018-11-11T16:40:25.102Z,14.10
2018-11-11T16:42:53.020Z,14.00
2018-11-11T16:45:21.831Z,14.20
2018-11-11T16:47:50.397Z,14.10
2018-11-11T16:50:20.211Z,14.10
2018-11-11T16:52:48.286Z,14.30
2018-11-11T16:55:16.980Z,14.10
2018-11-11T16:57:44.393Z,14.70
2018-11-11T17:00:14.629Z,13.70
2018-11-11T17:02:43.740Z,14.10
2018-11-11T17:05:13.574Z,14.20
2018-11-11T17:07:42.107Z,14.10
2018-11-11T17:10:11.107Z,14.20
2018-11-11T17:12:39.201Z,14.20
2018-11-11T17:15:08.140Z,14.30
2018-11-11T17:17:35.604Z,14.10
2018-11-11T17:20:03.010Z,14.30
2018-11-11T17:22:32.888Z,14.30
2018-11-11T17:24:59.998Z,14.20
2018-11-11T17:27:27.287Z,14.20
2018-11-11T17:29:55.059Z,14.20
2018-11-11T17:32:22.381Z,14.20
2018-11-11T17:34:49.562Z,14.20
2018-11-11T17:37:16.902Z,14.70
2018-11-11T17:39:44.322Z,14.20
2018-11-11T17:42:14.862Z,14.40
2018-11-11T17:44:42.118Z,14.30
2018-11-11T17:47:09.410Z,14.30
2018-11-11T17:49:37.028Z,14.20
2018-11-11T17:52:05.483Z,14.30
2018-11-11T17:54:32.886Z,14.30
2018-11-11T17:57:00.238Z,14.40
2018-11-11T17:59:27.907Z,14.20
2018-11-11T18:01:55.472Z,14.50
2018-11-11T18:04:22.989Z,14.30
2018-11-11T18:06:50.459Z,14.30
2018-11-11T18:09:21.139Z,14.60
2018-11-11T18:11:48.505Z,14.30
2018-11-11T18:14:15.993Z,14.20
2018-11-11T18:16:43.366Z,14.20
2018-11-11T18:19:10.731Z,14.20
2018-11-11T18:21:38.071Z,14.20
2018-11-11T18:24:05.586Z,14.20
2018-11-11T18:26:33.076Z,14.50
2018-11-11T18:29:00.412Z,14.70
2018-11-11T18:31:27.730Z,14.20
2018-11-11T18:33:55.078Z,14.10
2018-11-11T18:36:22.415Z,14.10
2018-11-11T18:38:49.750Z,14.40
2018-11-11T18:41:17.078Z,14.10
2018-11-11T18:43:44.798Z,14.20
2018-11-11T18:46:12.148Z,14.10
2018-11-11T18:48:39.987Z,14.20
2018-11-11T18:51:07.313Z,14.10
2018-11-11T18:53:34.698Z,14.20
2018-11-11T18:56:02.023Z,14.50
2018-11-11T18:58:29.392Z,14.30
2018-11-11T19:00:56.743Z,14.10
2018-11-11T19:03:24.079Z,14.30
2018-11-11T19:05:51.408Z,14.00
2018-11-11T19:08:18.774Z,14.30
2018-11-11T19:10:46.231Z,14.00
2018-11-11T19:13:13.530Z,14.00
2018-11-11T19:15:40.843Z,14.00
2018-11-11T19:18:08.210Z,13.90
2018-11-11T19:20:35.587Z,13.70
2018-11-11T19:23:02.935Z,14.20
2018-11-11T19:25:31.120Z,13.80
2018-11-11T19:27:59.694Z,13.80
2018-11-11T19:30:27.657Z,14.10
2018-11-11T19:32:54.970Z,13.90
2018-11-11T19:35:22.390Z,13.90
2018-11-11T19:37:51.100Z,13.70
2018-11-11T19:40:20.472Z,13.50
2018-11-11T19:42:48.251Z,13.60
2018-11-11T19:45:19.794Z,13.60
2018-11-11T19:47:47.166Z,13.70
2018-11-11T19:50:16.710Z,13.60
2018-11-11T19:52:45.446Z,13.60
2018-11-11T19:55:14.199Z,13.70
2018-11-11T19:57:41.953Z,13.80
2018-11-11T20:00:11.431Z,13.70
2018-11-11T20:02:39.225Z,13.60
2018-11-11T20:05:07.757Z,13.60
2018-11-11T20:07:35.125Z,13.70
2018-11-11T20:10:02.514Z,14.00
2018-11-11T20:12:29.839Z,13.50
2018-11-11T20:14:57.190Z,13.50
2018-11-11T20:17:24.549Z,13.40
2018-11-11T20:19:52.462Z,13.60
2018-11-11T20:22:19.855Z,13.50
2018-11-11T20:24:47.217Z,13.50
2018-11-11T20:27:14.570Z,13.50
2018-11-11T20:29:41.946Z,13.50
2018-11-11T20:32:09.322Z,13.60
2018-11-11T20:34:36.751Z,13.80
2018-11-11T20:37:04.273Z,13.50
2018-11-11T20:39:31.609Z,13.40
2018-11-11T20:42:02.047Z,13.20
2018-11-11T20:44:29.435Z,13.40
2018-11-11T20:46:56.814Z,13.70
2018-11-11T20:49:24.238Z,13.20
2018-11-11T20:51:51.603Z,13.30
2018-11-11T20:54:18.907Z,13.30
2018-11-11T20:56:46.270Z,13.20
2018-11-11T20:59:13.535Z,13.50
2018-11-11T21:01:40.811Z,13.30
2018-11-11T21:04:09.064Z,13.40
2018-11-11T21:06:36.342Z,13.30
2018-11-11T21:09:09.412Z,13.30
2018-11-11T21:11:36.957Z,13.30
2018-11-11T21:14:04.690Z,13.30
2018-11-11T21:16:32.878Z,13.30
2018-11-11T21:19:00.180Z,13.30
2018-11-11T21:21:29.608Z,13.30
2018-11-11T21:23:56.907Z,13.30
2018-11-11T21:26:24.203Z,13.80
2018-11-11T21:28:51.538Z,13.20
2018-11-11T21:31:18.866Z,13.20
2018-11-11T21:33:46.212Z,13.10
2018-11-11T21:36:13.563Z,13.30
2018-11-11T21:38:40.943Z,12.90
2018-11-11T21:41:08.304Z,13.10
2018-11-11T21:43:35.593Z,13.10
2018-11-11T21:46:02.912Z,13.10
2018-11-11T21:48:30.230Z,13.10
2018-11-11T21:50:57.768Z,13.00
2018-11-11T21:53:29.169Z,13.00
2018-11-11T21:55:56.706Z,12.90
2018-11-11T21:58:24.019Z,13.20
2018-11-11T22:00:51.315Z,13.00
2018-11-11T22:03:18.624Z,13.00
2018-11-11T22:05:46.662Z,12.90
2018-11-11T22:08:14.020Z,12.90
2018-11-11T22:10:41.331Z,12.90
2018-11-11T22:13:08.659Z,13.00
2018-11-11T22:15:36.003Z,12.90
2018-11-11T22:18:03.363Z,13.00
2018-11-11T22:20:30.630Z,12.90
2018-11-11T22:22:58.106Z,12.80
2018-11-11T22:25:25.691Z,12.90
2018-11-11T22:27:53.111Z,13.20
2018-11-11T22:30:20.868Z,13.20
2018-11-11T22:32:48.234Z,12.80
2018-11-11T22:35:15.662Z,13.20
2018-11-11T22:37:42.988Z,13.20
2018-11-11T22:40:11.839Z,12.90
2018-11-11T22:42:39.113Z,12.90
2018-11-11T22:45:08.754Z,13.00
2018-11-11T22:47:36.513Z,13.10
2018-11-11T22:50:05.178Z,13.00
2018-11-11T22:52:32.601Z,13.00
2018-11-11T22:55:00.079Z,13.20
2018-11-11T22:57:27.454Z,13.10
2018-11-11T22:59:54.861Z,13.10
2018-11-11T23:02:22.216Z,13.00
2018-11-11T23:04:49.628Z,13.10
2018-11-11T23:07:16.957Z,13.10
2018-11-11T23:09:45.111Z,13.40
2018-11-11T23:12:12.549Z,12.80
2018-11-11T23:14:40.038Z,13.10
2018-11-11T23:17:07.452Z,13.10
2018-11-11T23:19:34.843Z,13.10
2018-11-11T23:22:02.250Z,13.50
2018-11-11T23:24:29.998Z,13.10
2018-11-11T23:26:57.396Z,13.20
2018-11-11T23:29:24.807Z,13.10
2018-11-11T23:31:52.253Z,13.50
2018-11-11T23:34:19.734Z,13.10
2018-11-11T23:36:47.318Z,13.10
2018-11-11T23:39:14.745Z,13.20
2018-11-11T23:41:42.154Z,13.20
2018-11-11T23:44:09.627Z,13.20
2018-11-11T23:46:37.643Z,13.10
2018-11-11T23:49:05.440Z,13.20
2018-11-11T23:51:33.770Z,13.20
2018-11-11T23:54:01.124Z,13.20
2018-11-11T23:56:28.427Z,13.50
2018-11-11T23:58:55.882Z,13.30
